Time;durP1;ratioP1;P1;durP2;ratioP2;P2;SDS_P1;SDS_P2;PMS_P1;PMS_P2;Temp;Humidity;BMP_temperature;BMP_pressure;BME280_temperature;BME280_humidity;BME280_pressure;Samples;Min_cycle;Max_cycle;Signal;HPM_P1;HPM_P2
2023/12/09 01:05:38;;;;;;;;;;;;;;;;;;;;;
2023/12/09 01:12:27;;;;;;;5.40;5.10;;;11.40;99.90;;;;;;4925102;29;20812;-96
2023/12/09 01:29:43;;;;;;;4.45;4.18;;;11.50;99.90;;;;;;4879595;29;20040;-95
2023/12/09 01:33:28;;;;;;;4.85;4.55;;;11.90;99.90;;;;;;4867825;29;21525;-96
2023/12/09 02:58:53;;;;;;;5.13;4.82;;;11.60;99.90;;;;;;5194942;23;20080;-91
2023/12/09 03:01:35;;;;;;;4.43;4.18;;;11.80;99.90;;;;;;4872186;29;20767;-92
2023/12/09 03:04:32;;;;;;;4.80;4.50;;;11.30;99.90;;;;;;4974036;23;20059;-92
2023/12/09 03:13:11;;;;;;;5.05;4.75;;;11.50;99.90;;;;;;5018591;23;20060;-92
2023/12/09 03:15:52;;;;;;;5.18;4.88;;;11.80;99.90;;;;;;5123710;23;20114;-93
2023/12/09 03:18:45;;;;;;;4.97;4.68;;;11.70;99.90;;;;;;4882947;29;20110;-93
2023/12/09 03:21:20;;;;;;;4.75;4.45;;;11.40;99.90;;;;;;4882589;29;20699;-95
2023/12/09 03:23:49;;;;;;;4.70;4.40;;;11.70;99.90;;;;;;4880048;29;20055;-93
2023/12/09 03:26:59;;;;;;;5.28;4.97;;;11.70;99.90;;;;;;4887816;29;20063;-95
2023/12/09 03:33:26;;;;;;;5.18;4.88;;;11.70;99.90;;;;;;4912621;29;20060;-92
2023/12/09 03:54:55;;;;;;;4.93;4.63;;;11.30;99.90;;;;;;4866967;29;20057;-96
2023/12/09 04:05:09;;;;;;;5.20;4.90;;;11.20;99.90;;;;;;4852663;29;20081;-95
2023/12/09 04:11:15;;;;;;;5.60;5.30;;;11.10;99.90;;;;;;4897114;29;20188;-95
2023/12/09 04:14:01;;;;;;;5.03;4.72;;;11.30;99.90;;;;;;4887506;29;20044;-93
2023/12/09 04:24:08;;;;;;;5.10;4.80;;;11.50;99.90;;;;;;4880739;29;20116;-90
2023/12/09 04:34:12;;;;;;;5.55;5.25;;;11.10;99.90;;;;;;4792608;29;20096;-95
2023/12/09 04:36:50;;;;;;;4.38;4.13;;;11.20;99.90;;;;;;4792531;29;20584;-96
2023/12/09 04:46:51;;;;;;;5.63;5.32;;;11.30;99.90;;;;;;4767130;30;20145;-93
2023/12/09 04:49:35;;;;;;;4.90;4.60;;;11.10;99.90;;;;;;4754292;30;20104;-94
2023/12/09 04:56:42;;;;;;;5.30;5.00;;;11.30;99.90;;;;;;4782419;29;20134;-94
2023/12/09 04:59:59;;;;;;;5.60;5.30;;;11.20;99.90;;;;;;4771963;29;20821;-95
2023/12/09 05:03:09;;;;;;;5.50;5.20;;;11.10;99.90;;;;;;4718509;30;20156;-93
2023/12/09 05:05:38;;;;;;;4.85;4.55;;;11.00;99.90;;;;;;4722774;29;20067;-93
2023/12/09 05:08:10;;;;;;;4.80;4.50;;;10.90;99.90;;;;;;4792417;29;20047;-94
2023/12/09 05:10:48;;;;;;;5.28;4.97;;;11.20;99.90;;;;;;4773938;29;20122;-95
2023/12/09 05:17:02;;;;;;;5.20;4.90;;;11.30;99.90;;;;;;4875875;29;20089;-93
2023/12/09 05:23:21;;;;;;;5.43;5.13;;;11.10;99.90;;;;;;4789315;29;20062;-93
2023/12/09 05:26:37;;;;;;;5.30;5.00;;;11.20;99.90;;;;;;4810085;29;20114;-96
2023/12/09 05:29:18;;;;;;;5.20;4.90;;;11.10;99.90;;;;;;4818798;29;20050;-95
2023/12/09 05:32:05;;;;;;;5.50;5.20;;;11.00;99.90;;;;;;4800813;29;20046;-91
2023/12/09 05:34:55;;;;;;;5.13;4.82;;;11.00;99.90;;;;;;4800017;29;20050;-91
2023/12/09 05:37:24;;;;;;;4.93;4.63;;;11.00;99.90;;;;;;4801208;29;20077;-92
2023/12/09 05:40:46;;;;;;;5.35;5.05;;;11.30;99.90;;;;;;4801448;29;20043;-93
2023/12/09 05:43:33;;;;;;;4.80;4.50;;;10.90;99.90;;;;;;4825956;29;20083;-95
2023/12/09 05:46:01;;;;;;;5.30;5.00;;;11.30;99.90;;;;;;4858954;29;20057;-92
2023/12/09 05:52:29;;;;;;;6.47;6.07;;;11.00;99.90;;;;;;4838206;29;20103;-95
2023/12/09 05:54:55;;;;;;;4.82;4.53;;;10.90;99.90;;;;;;4859831;29;20139;-90
2023/12/09 05:57:26;;;;;;;4.30;4.10;;;11.30;99.90;;;;;;4860593;29;20183;-94
2023/12/09 05:59:52;;;;;;;5.00;4.70;;;11.00;99.90;;;;;;4860143;29;20060;-92
2023/12/09 06:02:23;;;;;;;4.88;4.57;;;10.90;99.90;;;;;;4858397;29;20045;-93
2023/12/09 06:08:07;;;;;;;;;;;11.10;99.90;;;;;;4891709;29;20022;-93
2023/12/09 06:10:51;;;;;;;6.47;6.07;;;11.00;99.90;;;;;;4861562;29;19958;-90
2023/12/09 06:13:29;;;;;;;;;;;11.20;99.90;;;;;;4863658;29;20380;-96
2023/12/09 06:20:08;;;;;;;5.35;5.05;;;11.20;99.90;;;;;;4786089;29;20053;-96
2023/12/09 06:22:42;;;;;;;4.70;4.40;;;10.90;99.90;;;;;;4766705;29;20071;-93
2023/12/09 06:25:23;;;;;;;5.20;4.90;;;11.20;99.90;;;;;;4775429;29;20285;-94
2023/12/09 06:28:19;;;;;;;4.80;4.50;;;11.10;99.90;;;;;;4778529;29;20074;-96
2023/12/09 06:31:14;;;;;;;5.00;4.70;;;10.90;99.90;;;;;;4737107;30;20074;-94
2023/12/09 06:34:19;;;;;;;5.35;5.05;;;10.90;99.90;;;;;;4771584;29;20066;-96
2023/12/09 06:36:53;;;;;;;6.00;5.70;;;11.10;99.90;;;;;;4804226;29;20059;-95
2023/12/09 06:39:25;;;;;;;5.40;5.10;;;10.80;99.90;;;;;;4806301;29;20192;-94
2023/12/09 06:41:56;;;;;;;5.70;5.40;;;10.80;99.90;;;;;;4778136;29;20042;-96
2023/12/09 06:47:41;;;;;;;5.20;4.90;;;10.80;99.90;;;;;;4705248;30;20512;-96
2023/12/09 06:50:28;;;;;;;5.20;4.90;;;10.70;99.90;;;;;;4785796;29;20133;-96
2023/12/09 06:53:00;;;;;;;5.22;4.93;;;10.60;99.90;;;;;;4854607;29;20124;-95
2023/12/09 06:59:46;;;;;;;5.82;5.53;;;10.30;99.90;;;;;;4836116;29;20045;-95
2023/12/09 07:06:36;;;;;;;4.43;4.20;;;10.10;99.90;;;;;;4841683;29;20110;-96
2023/12/09 07:09:08;;;;;;;4.40;4.20;;;10.10;99.90;;;;;;4811340;29;20050;-94
2023/12/09 07:15:35;;;;;;;4.18;3.97;;;10.20;99.90;;;;;;4836199;29;20065;-95
2023/12/09 07:18:27;;;;;;;4.20;4.00;;;9.90;99.90;;;;;;4835256;29;20081;-96
2023/12/09 07:25:16;;;;;;;3.78;3.58;;;9.90;99.90;;;;;;4793891;29;20955;-96
2023/12/09 07:27:42;;;;;;;3.55;3.35;;;9.90;99.90;;;;;;4773180;29;20051;-93
2023/12/09 07:30:45;;;;;;;3.08;2.95;;;9.90;99.90;;;;;;4790828;29;20059;-94
2023/12/09 07:36:59;;;;;;;3.40;3.20;;;10.00;99.90;;;;;;4822441;29;20045;-95
2023/12/09 07:42:48;;;;;;;3.00;2.90;;;9.80;99.90;;;;;;4820282;29;20137;-90
2023/12/09 07:45:42;;;;;;;;;;;;;;;;;;;;;
2023/12/09 07:48:56;;;;;;;2.63;2.53;;;10.00;99.90;;;;;;4822592;29;20094;-94
2023/12/09 07:51:22;;;;;;;2.42;2.33;;;9.80;99.90;;;;;;4786593;29;20061;-92
2023/12/09 07:57:17;;;;;;;2.70;2.60;;;9.80;99.90;;;;;;4883309;29;20055;-89
2023/12/09 07:59:48;;;;;;;2.40;2.30;;;9.90;99.90;;;;;;4852500;29;20059;-91
2023/12/09 08:03:04;;;;;;;2.28;2.17;;;9.90;99.90;;;;;;4861532;29;20095;-94
2023/12/09 08:05:41;;;;;;;2.33;2.22;;;10.10;99.90;;;;;;4862839;29;20527;-95
2023/12/09 08:08:10;;;;;;;2.35;2.25;;;9.90;99.90;;;;;;4867970;29;20649;-92
2023/12/09 08:10:36;;;;;;;2.72;2.63;;;10.00;99.90;;;;;;4868115;29;20048;-92
2023/12/09 08:13:23;;;;;;;2.25;2.15;;;10.20;99.90;;;;;;4862233;29;20040;-94
2023/12/09 08:16:36;;;;;;;2.53;2.42;;;10.20;99.90;;;;;;4858257;29;20049;-94
2023/12/09 08:26:43;;;;;;;2.38;2.28;;;10.30;99.90;;;;;;4802424;29;20094;-94
2023/12/09 08:29:14;;;;;;;2.63;2.53;;;10.20;99.90;;;;;;4788907;29;20129;-93
2023/12/09 08:32:03;;;;;;;2.90;2.80;;;10.20;99.90;;;;;;4807367;29;20062;-91
2023/12/09 08:34:43;;;;;;;3.08;2.92;;;10.20;99.90;;;;;;4815273;29;20061;-94
2023/12/09 08:37:15;;;;;;;2.55;2.45;;;10.20;99.90;;;;;;4802089;29;20058;-92
2023/12/09 08:40:40;;;;;;;2.53;2.42;;;10.30;99.90;;;;;;4846261;29;20632;-95
2023/12/09 08:43:17;;;;;;;2.72;2.63;;;10.40;99.90;;;;;;4853659;29;20121;-96
2023/12/09 08:46:28;;;;;;;;;;;;;;;;;;;;;
2023/12/09 08:48:59;;;;;;;3.17;3.08;;;10.40;99.90;;;;;;4842745;29;20559;-89
2023/12/09 08:51:45;;;;;;;2.92;2.83;;;10.50;99.90;;;;;;4829763;29;20092;-95
2023/12/09 08:54:28;;;;;;;2.90;2.80;;;10.50;99.90;;;;;;4857382;29;20067;-94
2023/12/09 08:56:59;;;;;;;2.97;2.87;;;10.60;99.90;;;;;;4859629;29;20709;-95
2023/12/09 08:59:28;;;;;;;2.85;2.75;;;10.60;99.90;;;;;;4857085;29;20352;-92
2023/12/09 09:02:26;;;;;;;3.58;3.38;;;10.60;99.90;;;;;;4856899;29;20056;-95
2023/12/09 09:08:13;;;;;;;3.63;3.42;;;10.80;99.90;;;;;;4879248;29;20135;-88
2023/12/09 09:10:41;;;;;;;3.33;3.13;;;10.80;99.90;;;;;;4857317;29;20044;-93
2023/12/09 09:13:12;;;;;;;3.45;3.25;;;10.80;99.90;;;;;;4857547;29;20803;-92
2023/12/09 09:16:07;;;;;;;3.70;3.50;;;10.90;99.90;;;;;;4875022;29;20083;-90
2023/12/09 09:19:22;;;;;;;3.88;3.67;;;11.00;99.90;;;;;;4873941;29;20132;-96
2023/12/09 09:21:53;;;;;;;;;;;11.10;99.90;;;;;;4860071;29;20646;-94
2023/12/09 09:24:33;;;;;;;4.68;4.40;;;11.20;99.90;;;;;;4858679;29;19946;-95
2023/12/09 09:26:59;;;;;;;3.83;3.63;;;11.30;99.90;;;;;;4855749;29;20052;-93
2023/12/09 09:29:50;;;;;;;3.50;3.30;;;11.40;99.90;;;;;;4854068;29;20086;-94
2023/12/09 09:32:33;;;;;;;4.50;4.30;;;11.50;99.90;;;;;;4849262;29;20173;-92
2023/12/09 09:38:05;;;;;;;5.32;5.03;;;11.70;99.90;;;;;;4842243;29;20045;-91
2023/12/09 09:41:49;;;;;;;;;;;;;;;;;;;;;
2023/12/09 09:44:42;;;;;;;5.57;5.28;;;11.90;99.90;;;;;;4873533;29;20048;-93
2023/12/09 09:47:23;;;;;;;5.65;5.35;;;11.90;99.90;;;;;;4859763;29;20056;-94
2023/12/09 09:49:56;;;;;;;4.88;4.57;;;11.90;99.90;;;;;;4856768;29;20056;-96
2023/12/09 09:52:26;;;;;;;5.10;4.80;;;11.80;99.90;;;;;;4859265;29;20053;-93
2023/12/09 09:58:26;;;;;;;;;;;;;;;;;;;;;
2023/12/09 10:00:59;;;;;;;5.13;4.82;;;11.70;99.90;;;;;;4873529;29;20065;-91
2023/12/09 10:03:30;;;;;;;5.27;4.97;;;11.80;99.90;;;;;;4856909;29;20210;-93
2023/12/09 10:06:14;;;;;;;4.15;3.95;;;11.80;99.90;;;;;;4858162;29;20593;-92
2023/12/09 10:08:51;;;;;;;;;;;11.80;99.90;;;;;;4860745;29;20140;-94
2023/12/09 10:11:22;;;;;;;4.88;4.57;;;11.90;99.90;;;;;;4861574;29;19932;-96
2023/12/09 10:13:57;;;;;;;5.22;4.93;;;11.90;99.90;;;;;;4876847;29;20124;-94
2023/12/09 10:16:25;;;;;;;4.70;4.45;;;12.00;99.90;;;;;;4863228;29;20048;-91
2023/12/09 10:18:57;;;;;;;5.63;5.32;;;12.00;99.90;;;;;;4862230;29;20048;-94
2023/12/09 10:21:23;;;;;;;4.60;4.40;;;12.00;99.90;;;;;;4846854;29;20053;-93
2023/12/09 10:23:54;;;;;;;5.30;5.00;;;12.00;99.90;;;;;;4867990;29;20056;-92
2023/12/09 10:26:20;;;;;;;4.88;4.57;;;12.00;99.90;;;;;;4855952;29;20060;-89
2023/12/09 10:28:46;;;;;;;5.40;5.10;;;12.00;99.90;;;;;;4874607;29;20052;-90
2023/12/09 10:31:12;;;;;;;4.57;4.35;;;12.00;99.90;;;;;;4858203;29;20481;-89
2023/12/09 10:33:58;;;;;;;5.28;4.97;;;12.00;99.90;;;;;;4862182;29;20092;-94
2023/12/09 10:36:24;;;;;;;5.05;4.75;;;12.00;99.90;;;;;;4854111;29;20048;-89
2023/12/09 10:38:52;;;;;;;4.53;4.30;;;12.00;99.90;;;;;;4863328;29;20056;-93
2023/12/09 10:41:44;;;;;;;4.72;4.45;;;11.90;99.90;;;;;;4862111;29;20515;-95
2023/12/09 10:44:10;;;;;;;5.10;4.80;;;12.00;99.90;;;;;;4858923;29;20076;-89
2023/12/09 10:46:45;;;;;;;5.10;4.80;;;11.90;99.90;;;;;;4864457;29;20637;-95
2023/12/09 10:49:43;;;;;;;5.05;4.75;;;12.00;99.90;;;;;;4859568;29;20108;-96
2023/12/09 10:52:38;;;;;;;4.95;4.65;;;11.90;99.90;;;;;;4857741;29;20048;-96
2023/12/09 10:55:07;;;;;;;5.80;5.50;;;11.90;99.90;;;;;;4858040;29;20048;-92
2023/12/09 10:57:33;;;;;;;4.53;4.30;;;11.80;99.90;;;;;;4860798;29;20332;-91
2023/12/09 11:00:25;;;;;;;4.88;4.60;;;11.90;99.90;;;;;;4862141;29;20059;-95
2023/12/09 11:02:57;;;;;;;5.05;4.75;;;11.90;99.90;;;;;;4862803;29;20048;-91
2023/12/09 11:05:45;;;;;;;5.05;4.75;;;12.00;99.90;;;;;;4856117;29;20048;-96
2023/12/09 11:11:29;;;;;;;5.43;5.13;;;11.90;99.90;;;;;;4869136;29;20060;-93
2023/12/09 11:14:07;;;;;;;5.25;4.95;;;11.90;99.90;;;;;;4860024;29;20059;-96
2023/12/09 11:16:43;;;;;;;5.25;4.95;;;11.90;99.90;;;;;;4861420;29;20048;-93
2023/12/09 11:19:29;;;;;;;4.10;3.90;;;11.90;99.90;;;;;;4860552;29;20064;-92
2023/12/09 11:22:19;;;;;;;5.03;4.72;;;12.00;99.90;;;;;;4876139;29;20044;-93
2023/12/09 11:28:30;;;;;;;5.25;4.95;;;12.10;99.90;;;;;;4860160;29;20085;-93
2023/12/09 11:31:15;;;;;;;5.25;4.95;;;12.10;99.90;;;;;;4855289;29;20100;-95
2023/12/09 11:33:44;;;;;;;4.57;4.28;;;12.00;99.90;;;;;;4863816;29;20041;-95
2023/12/09 11:39:33;;;;;;;4.45;4.20;;;12.00;99.90;;;;;;4866468;29;20087;-96
2023/12/09 11:42:00;;;;;;;4.93;4.63;;;12.00;99.90;;;;;;4862899;29;20044;-94
2023/12/09 11:44:58;;;;;;;;;;;;;;;;;;;;;
2023/12/09 11:47:27;;;;;;;4.53;4.32;;;12.10;99.90;;;;;;4884510;29;20521;-91
2023/12/09 11:50:29;;;;;;;4.78;4.55;;;12.00;99.90;;;;;;4859678;29;20053;-96
2023/12/09 11:52:55;;;;;;;4.72;4.43;;;12.00;99.90;;;;;;4864289;29;20079;-92
2023/12/09 11:55:21;;;;;;;4.45;4.25;;;12.00;99.90;;;;;;4857655;29;20049;-91
2023/12/09 12:12:48;;;;;;;4.57;4.32;;;12.00;99.90;;;;;;4756369;30;20082;-94
2023/12/09 12:15:58;;;;;;;;;;;;;;;;;;;;;
2023/12/09 12:19:39;;;;;;;4.03;3.83;;;11.90;99.90;;;;;;4775011;29;20108;-95
2023/12/09 12:22:07;;;;;;;4.97;4.68;;;11.90;99.90;;;;;;4712533;30;20072;-96
2023/12/09 12:24:59;;;;;;;4.32;4.13;;;11.90;99.90;;;;;;4709061;30;20153;-95
2023/12/09 12:27:48;;;;;;;4.88;4.57;;;11.90;99.90;;;;;;4704770;30;20103;-95
2023/12/09 12:30:51;;;;;;;4.45;4.22;;;11.90;99.90;;;;;;4750274;29;20055;-94
2023/12/09 12:33:30;;;;;;;4.60;4.38;;;12.00;99.90;;;;;;4744097;29;20115;-90
2023/12/09 12:36:13;;;;;;;4.80;4.50;;;11.90;99.90;;;;;;4772121;29;20080;-95
2023/12/09 12:38:50;;;;;;;4.60;4.38;;;11.90;99.90;;;;;;4795502;29;20385;-96
2023/12/09 12:42:01;;;;;;;4.40;4.20;;;11.90;99.90;;;;;;4859553;29;20495;-96
2023/12/09 12:44:49;;;;;;;4.60;4.38;;;11.90;99.90;;;;;;4854019;29;20140;-93
2023/12/09 12:47:27;;;;;;;3.80;3.60;;;12.00;99.90;;;;;;4859225;29;20057;-95
2023/12/09 12:50:35;;;;;;;4.32;4.13;;;12.00;99.90;;;;;;4858207;29;20045;-95
2023/12/09 12:56:21;;;;;;;4.40;4.20;;;12.00;99.90;;;;;;4777883;29;21611;-96
2023/12/09 12:59:17;;;;;;;3.60;3.40;;;12.10;99.90;;;;;;4767934;29;20111;-96
2023/12/09 13:02:04;;;;;;;4.43;4.22;;;12.10;99.90;;;;;;4861063;29;20303;-94
2023/12/09 13:04:36;;;;;;;4.53;4.32;;;12.10;99.90;;;;;;4858534;29;20048;-96
2023/12/09 13:07:08;;;;;;;4.43;4.22;;;12.00;99.90;;;;;;4862228;29;20052;-93
2023/12/09 13:09:34;;;;;;;4.43;4.22;;;12.00;99.90;;;;;;4859261;29;20060;-95
2023/12/09 13:15:54;;;;;;;4.45;4.25;;;12.00;99.90;;;;;;4799539;29;21286;-93
2023/12/09 13:18:22;;;;;;;3.90;3.70;;;12.00;99.90;;;;;;4840779;29;20558;-95
2023/12/09 13:21:00;;;;;;;4.55;4.35;;;11.90;99.90;;;;;;4856351;29;20593;-94
2023/12/09 13:23:34;;;;;;;4.53;4.32;;;11.90;99.90;;;;;;4860254;29;20052;-94
2023/12/09 13:26:01;;;;;;;4.53;4.32;;;11.90;99.90;;;;;;4874754;29;20060;-94
2023/12/09 13:28:40;;;;;;;4.30;4.10;;;11.90;99.90;;;;;;4859580;29;20048;-94
2023/12/09 13:31:32;;;;;;;4.50;4.30;;;11.90;99.90;;;;;;4860067;29;20049;-91
2023/12/09 13:36:56;;;;;;;3.97;3.78;;;11.90;99.90;;;;;;5132036;27;20450;-90
2023/12/09 13:40:09;;;;;;;5.18;4.68;;;11.80;99.90;;;;;;5130190;27;20625;-94
2023/12/09 13:42:46;;;;;;;3.67;3.47;;;11.80;99.90;;;;;;5053165;28;20052;-94
2023/12/09 13:45:35;;;;;;;4.28;4.07;;;11.80;99.90;;;;;;5035663;28;20040;-96
2023/12/09 13:48:05;;;;;;;4.20;4.00;;;11.70;99.90;;;;;;5093410;28;20052;-94
2023/12/09 13:51:10;;;;;;;;;;;;;;;;;;;;;
2023/12/09 13:57:11;;;;;;;4.80;4.50;;;11.60;99.90;;;;;;5105859;27;20058;-95
2023/12/09 13:59:42;;;;;;;4.68;4.38;;;11.60;99.90;;;;;;5089488;28;20075;-94
2023/12/09 14:02:22;;;;;;;4.15;3.95;;;11.60;99.90;;;;;;5124559;27;20040;-95
2023/12/09 14:08:21;;;;;;;5.35;5.05;;;11.60;99.90;;;;;;5109360;28;20152;-95
2023/12/09 14:10:47;;;;;;;4.47;4.18;;;11.60;99.90;;;;;;5089313;28;20055;-91
2023/12/09 14:13:23;;;;;;;;;;;;;;;;;;;;;
2023/12/09 14:16:02;;;;;;;4.47;4.20;;;11.50;99.90;;;;;;5128658;27;20051;-96
2023/12/09 14:18:34;;;;;;;4.30;4.10;;;11.60;99.90;;;;;;5107963;28;20051;-93
2023/12/09 14:21:13;;;;;;;4.50;4.20;;;11.50;99.90;;;;;;5076325;28;20428;-94
2023/12/09 14:24:37;;;;;;;;;;;;;;;;;;;;;
2023/12/09 14:27:12;;;;;;;5.35;5.05;;;11.40;99.90;;;;;;5101000;28;20047;-93
2023/12/09 14:30:24;;;;;;;4.65;4.35;;;11.40;99.90;;;;;;5092103;28;20134;-96
2023/12/09 14:33:37;;;;;;;5.05;4.75;;;11.50;99.90;;;;;;5100192;28;20047;-96
2023/12/09 14:36:06;;;;;;;5.57;5.28;;;11.40;99.90;;;;;;5043890;28;20138;-93
2023/12/09 14:38:38;;;;;;;4.90;4.60;;;11.30;99.90;;;;;;5081237;28;20059;-95
2023/12/09 14:41:04;;;;;;;4.45;4.20;;;11.40;99.90;;;;;;5120121;27;20039;-92
2023/12/09 14:43:33;;;;;;;5.05;4.75;;;11.40;99.90;;;;;;5087439;28;20048;-92
2023/12/09 14:46:03;;;;;;;4.40;4.15;;;11.30;99.90;;;;;;5090408;28;20067;-95
2023/12/09 14:48:42;;;;;;;5.22;4.93;;;11.30;99.90;;;;;;5093839;28;20047;-96
2023/12/09 14:51:32;;;;;;;4.28;4.05;;;11.30;99.90;;;;;;5080792;28;20164;-96
2023/12/09 14:54:07;;;;;;;4.45;4.20;;;11.20;99.90;;;;;;5019925;28;20111;-95
2023/12/09 14:56:33;;;;;;;4.32;4.07;;;11.20;99.90;;;;;;5073117;28;20054;-92
2023/12/09 14:59:00;;;;;;;5.13;4.82;;;11.20;99.90;;;;;;5108842;27;20051;-93
2023/12/09 15:01:26;;;;;;;4.97;4.68;;;11.20;99.90;;;;;;5075684;28;20047;-94
2023/12/09 15:03:52;;;;;;;4.63;4.32;;;11.10;99.90;;;;;;5075076;28;20055;-91
2023/12/09 15:06:18;;;;;;;4.93;4.63;;;11.20;99.90;;;;;;5076712;28;20104;-95
2023/12/09 15:08:44;;;;;;;4.43;4.18;;;11.10;99.90;;;;;;5076913;28;20123;-93
2023/12/09 15:11:09;;;;;;;4.47;4.22;;;11.10;99.90;;;;;;5078911;28;20424;-92
2023/12/09 15:13:35;;;;;;;4.50;4.22;;;11.10;99.90;;;;;;5076649;28;20068;-93
2023/12/09 15:16:01;;;;;;;4.32;4.10;;;11.10;99.90;;;;;;5076673;28;20043;-93
2023/12/09 15:18:27;;;;;;;4.57;4.28;;;11.10;99.90;;;;;;5075491;28;20074;-91
2023/12/09 15:20:53;;;;;;;4.88;4.57;;;11.00;99.90;;;;;;5080016;28;20044;-92
2023/12/09 15:23:47;;;;;;;4.55;4.25;;;11.10;99.90;;;;;;5076529;28;20129;-94
2023/12/09 15:26:16;;;;;;;5.00;4.70;;;11.00;99.90;;;;;;5093644;28;21051;-94
2023/12/09 15:28:48;;;;;;;5.13;4.82;;;11.10;99.90;;;;;;5077413;28;20139;-92
2023/12/09 15:31:14;;;;;;;4.75;4.45;;;11.10;99.90;;;;;;5072251;28;21945;-87
2023/12/09 15:33:40;;;;;;;4.75;4.45;;;11.00;99.90;;;;;;5091125;28;20051;-93
2023/12/09 15:36:11;;;;;;;5.00;4.70;;;11.10;99.90;;;;;;5073593;28;20125;-92
2023/12/09 15:38:39;;;;;;;4.90;4.60;;;10.90;99.90;;;;;;5073882;28;20131;-92
2023/12/09 15:41:06;;;;;;;4.68;4.38;;;10.90;99.90;;;;;;5077927;28;20972;-93
2023/12/09 15:43:35;;;;;;;4.82;4.53;;;10.90;99.90;;;;;;5075273;28;20051;-93
2023/12/09 15:46:00;;;;;;;4.80;4.50;;;10.90;99.90;;;;;;5074343;28;20047;-91
2023/12/09 15:48:27;;;;;;;4.60;4.30;;;10.90;99.90;;;;;;5088021;28;21290;-90
2023/12/09 15:50:53;;;;;;;4.68;4.38;;;10.90;99.90;;;;;;5090409;28;20070;-93
2023/12/09 15:53:19;;;;;;;5.40;5.10;;;11.00;99.90;;;;;;5093541;28;20055;-91
2023/12/09 15:55:46;;;;;;;4.80;4.50;;;10.90;99.90;;;;;;5077454;28;20041;-93
2023/12/09 15:58:19;;;;;;;4.55;4.25;;;10.80;99.90;;;;;;5076412;28;20066;-91
2023/12/09 16:00:48;;;;;;;5.40;5.10;;;10.80;99.90;;;;;;5071633;28;21398;-92
2023/12/09 16:03:17;;;;;;;4.95;4.65;;;10.80;99.90;;;;;;5089935;28;20058;-91
2023/12/09 16:05:43;;;;;;;4.80;4.50;;;10.90;99.90;;;;;;5073080;28;20051;-92
2023/12/09 16:08:11;;;;;;;5.50;5.20;;;10.90;99.90;;;;;;5091535;28;20052;-90
2023/12/09 16:10:37;;;;;;;5.50;5.20;;;10.90;99.90;;;;;;5074653;28;20039;-90
2023/12/09 16:13:03;;;;;;;4.63;4.32;;;10.80;99.90;;;;;;5124865;27;20505;-90
2023/12/09 16:15:29;;;;;;;4.95;4.65;;;10.90;99.90;;;;;;5090037;28;20053;-91
2023/12/09 16:17:56;;;;;;;4.35;4.13;;;10.80;99.90;;;;;;5077948;28;20072;-92
2023/12/09 16:20:22;;;;;;;4.78;4.47;;;10.80;99.90;;;;;;5074291;28;20523;-93
2023/12/09 16:22:50;;;;;;;4.72;4.43;;;10.80;99.90;;;;;;5091750;28;20062;-94
2023/12/09 16:25:16;;;;;;;4.97;4.68;;;10.80;99.90;;;;;;5075389;28;20039;-91
2023/12/09 16:27:41;;;;;;;4.78;4.47;;;10.80;99.90;;;;;;5072344;28;20097;-95
2023/12/09 16:30:08;;;;;;;5.05;4.75;;;10.70;99.90;;;;;;5076591;28;20138;-92
2023/12/09 16:32:33;;;;;;;4.95;4.65;;;10.70;99.90;;;;;;5073226;28;20610;-92
2023/12/09 16:34:59;;;;;;;5.03;4.72;;;10.80;99.90;;;;;;5073677;28;20122;-91
2023/12/09 16:37:27;;;;;;;5.57;5.28;;;10.70;99.90;;;;;;5090425;28;20040;-91
2023/12/09 16:39:53;;;;;;;5.15;4.85;;;10.70;99.90;;;;;;5075432;28;20587;-91
2023/12/09 16:42:19;;;;;;;4.47;4.18;;;10.80;99.90;;;;;;5091253;28;20048;-94
2023/12/09 16:44:45;;;;;;;4.88;4.57;;;10.90;99.90;;;;;;5072904;28;20052;-91
2023/12/09 16:47:22;;;;;;;4.95;4.65;;;10.80;99.90;;;;;;5077653;28;20259;-92
2023/12/09 16:49:57;;;;;;;5.60;5.30;;;10.70;99.90;;;;;;5072421;28;20055;-92
2023/12/09 16:52:23;;;;;;;4.97;4.68;;;10.70;99.90;;;;;;5071708;28;20058;-91
2023/12/09 16:54:49;;;;;;;5.25;4.95;;;10.90;99.90;;;;;;5073564;28;20594;-94
2023/12/09 16:57:15;;;;;;;4.88;4.57;;;10.80;99.90;;;;;;5076930;28;20046;-90
2023/12/09 16:59:44;;;;;;;5.32;5.03;;;10.80;99.90;;;;;;5074102;28;20063;-92
2023/12/09 17:02:11;;;;;;;5.53;5.22;;;10.70;99.90;;;;;;5073579;28;20059;-92
2023/12/09 17:04:36;;;;;;;4.65;4.35;;;10.80;99.90;;;;;;5074676;28;20607;-92
2023/12/09 17:07:05;;;;;;;5.65;5.35;;;10.90;99.90;;;;;;5072155;28;20048;-94
2023/12/09 17:09:31;;;;;;;5.07;4.78;;;10.80;99.90;;;;;;5074038;28;20044;-94
2023/12/09 17:11:57;;;;;;;4.97;4.68;;;10.70;99.90;;;;;;5075543;28;20089;-94
2023/12/09 17:14:26;;;;;;;5.10;4.80;;;10.70;99.90;;;;;;5074133;28;20763;-95
2023/12/09 17:16:57;;;;;;;4.63;4.32;;;10.80;99.90;;;;;;5074596;28;20039;-95
2023/12/09 17:19:23;;;;;;;5.53;5.22;;;10.80;99.90;;;;;;5075764;28;20504;-93
2023/12/09 17:21:49;;;;;;;5.28;4.97;;;10.60;99.90;;;;;;5070241;28;20042;-91
2023/12/09 17:24:19;;;;;;;4.70;4.40;;;10.70;99.90;;;;;;5074659;28;20093;-95
2023/12/09 17:26:54;;;;;;;5.35;5.05;;;10.80;99.90;;;;;;5076187;28;21494;-92
2023/12/09 17:29:23;;;;;;;5.20;4.90;;;10.60;99.90;;;;;;5073560;28;20481;-94
2023/12/09 17:31:48;;;;;;;5.22;4.93;;;10.50;99.90;;;;;;5075227;28;21318;-92
2023/12/09 17:34:15;;;;;;;4.35;4.07;;;10.70;99.90;;;;;;5077595;28;20057;-93
2023/12/09 17:36:44;;;;;;;4.63;4.32;;;10.80;99.90;;;;;;5075638;28;20043;-94
2023/12/09 17:39:14;;;;;;;5.20;4.90;;;10.60;99.90;;;;;;5076308;28;20049;-92
2023/12/09 17:41:43;;;;;;;5.40;5.10;;;10.60;99.90;;;;;;5075513;28;20070;-94
2023/12/09 17:44:09;;;;;;;4.80;4.50;;;10.80;99.90;;;;;;5073853;28;20042;-95
2023/12/09 17:46:35;;;;;;;5.03;4.72;;;10.70;99.90;;;;;;5072924;28;20131;-91
2023/12/09 17:49:01;;;;;;;4.70;4.40;;;10.80;99.90;;;;;;5074071;28;20166;-91
2023/12/09 17:51:33;;;;;;;5.10;4.80;;;10.50;99.90;;;;;;5072793;28;20050;-91
2023/12/09 17:54:01;;;;;;;4.75;4.45;;;10.80;99.90;;;;;;5111058;28;20078;-93
2023/12/09 17:56:27;;;;;;;4.82;4.53;;;10.80;99.90;;;;;;5072981;28;20170;-91
2023/12/09 17:58:53;;;;;;;4.75;4.45;;;10.50;99.90;;;;;;5076876;28;20165;-93
2023/12/09 18:01:23;;;;;;;4.70;4.40;;;10.70;99.90;;;;;;5075192;28;20059;-93
2023/12/09 18:03:54;;;;;;;5.07;4.78;;;10.70;99.90;;;;;;5076695;28;20040;-95
2023/12/09 18:06:32;;;;;;;5.10;4.80;;;10.80;99.90;;;;;;5075629;28;20058;-95
2023/12/09 18:09:01;;;;;;;4.93;4.63;;;10.50;99.90;;;;;;5075456;28;20104;-94
2023/12/09 18:11:36;;;;;;;5.05;4.75;;;10.50;99.90;;;;;;5077577;28;20068;-96
2023/12/09 18:14:05;;;;;;;4.78;4.47;;;10.70;99.90;;;;;;5073847;28;20077;-94
2023/12/09 18:16:32;;;;;;;5.32;5.03;;;10.80;99.90;;;;;;5076510;28;20045;-96
2023/12/09 18:19:06;;;;;;;4.90;4.60;;;10.50;99.90;;;;;;5073021;28;20067;-91
2023/12/09 18:21:33;;;;;;;4.72;4.43;;;10.50;99.90;;;;;;5072983;28;20486;-93
2023/12/09 18:23:58;;;;;;;4.95;4.65;;;10.60;99.90;;;;;;5091610;28;20051;-90
2023/12/09 18:26:24;;;;;;;4.95;4.65;;;10.70;99.90;;;;;;5093378;28;20044;-94
2023/12/09 18:28:50;;;;;;;4.53;4.22;;;10.70;99.90;;;;;;5077777;28;20043;-91
2023/12/09 18:31:21;;;;;;;4.80;4.50;;;10.50;99.90;;;;;;5110125;27;20048;-93
2023/12/09 18:33:46;;;;;;;4.95;4.65;;;10.50;99.90;;;;;;5075168;28;20146;-91
2023/12/09 18:36:12;;;;;;;5.00;4.70;;;10.70;99.90;;;;;;5077468;28;20241;-92
2023/12/09 18:38:38;;;;;;;4.70;4.40;;;10.40;99.90;;;;;;5088303;28;20055;-92
2023/12/09 18:41:05;;;;;;;4.63;4.32;;;10.40;99.90;;;;;;5081411;28;20501;-91
2023/12/09 18:43:32;;;;;;;5.30;5.00;;;10.50;99.90;;;;;;5066801;28;20811;-90
2023/12/09 18:45:58;;;;;;;5.07;4.78;;;10.40;99.90;;;;;;5084588;28;20460;-89
2023/12/09 18:48:26;;;;;;;5.32;5.03;;;10.50;99.90;;;;;;5062653;28;20036;-89
2023/12/09 18:50:53;;;;;;;4.93;4.63;;;10.90;99.90;;;;;;5064431;28;20058;-89
2023/12/09 18:53:20;;;;;;;4.63;4.32;;;10.70;99.90;;;;;;5118441;27;20134;-89
2023/12/09 18:55:46;;;;;;;4.63;4.32;;;10.50;99.90;;;;;;5092826;28;20047;-88
2023/12/09 18:58:13;;;;;;;4.85;4.55;;;10.70;99.90;;;;;;5072125;28;20055;-89
2023/12/09 19:00:39;;;;;;;4.60;4.30;;;10.90;99.90;;;;;;5090767;28;20489;-89
2023/12/09 19:03:06;;;;;;;4.43;4.13;;;11.00;99.90;;;;;;5072333;28;20562;-89
2023/12/09 19:05:32;;;;;;;5.35;5.05;;;10.60;99.90;;;;;;5126031;27;20122;-90
2023/12/09 19:07:58;;;;;;;4.40;4.13;;;10.60;99.90;;;;;;5077322;28;20072;-89
2023/12/09 19:10:25;;;;;;;4.63;4.32;;;10.60;99.90;;;;;;5127167;27;20557;-92
2023/12/09 19:12:51;;;;;;;4.28;4.05;;;10.90;99.90;;;;;;5076913;28;20432;-92
2023/12/09 19:15:18;;;;;;;4.60;4.30;;;10.80;99.90;;;;;;5107979;27;20040;-88
2023/12/09 19:17:45;;;;;;;5.00;4.70;;;11.10;99.90;;;;;;5073980;28;20043;-90
2023/12/09 19:20:12;;;;;;;4.25;4.03;;;10.90;99.90;;;;;;5090245;28;20045;-88
2023/12/09 19:22:38;;;;;;;4.45;4.15;;;10.80;99.90;;;;;;5089779;28;20727;-90
2023/12/09 19:25:04;;;;;;;4.55;4.25;;;10.70;99.90;;;;;;5089902;28;20055;-91
2023/12/09 19:27:30;;;;;;;4.50;4.20;;;10.90;99.90;;;;;;5074176;28;20055;-90
2023/12/09 19:29:55;;;;;;;4.13;3.92;;;11.10;99.90;;;;;;5076029;28;20036;-90